sensor_id;sensor_type;location;lat;lon;timestamp;P1;durP1;ratioP1;P2;durP2;ratioP2
7179;SDS011;3631;42.152;24.756;2023-12-20T00:00:20;60.37;;;30.07;;
7179;SDS011;3631;42.152;24.756;2023-12-20T00:02:47;51.67;;;28.30;;
7179;SDS011;3631;42.152;24.756;2023-12-20T00:05:14;63.50;;;29.53;;
7179;SDS011;3631;42.152;24.756;2023-12-20T00:07:43;57.57;;;28.53;;
7179;SDS011;3631;42.152;24.756;2023-12-20T00:10:09;61.27;;;29.60;;
7179;SDS011;3631;42.152;24.756;2023-12-20T00:12:38;58.57;;;30.23;;
7179;SDS011;3631;42.152;24.756;2023-12-20T00:15:06;59.97;;;29.17;;
7179;SDS011;3631;42.152;24.756;2023-12-20T00:17:33;56.07;;;29.43;;
7179;SDS011;3631;42.152;24.756;2023-12-20T00:20:00;51.57;;;28.57;;
7179;SDS011;3631;42.152;24.756;2023-12-20T00:22:27;52.70;;;27.53;;
7179;SDS011;3631;42.152;24.756;2023-12-20T00:24:55;55.27;;;28.30;;
7179;SDS011;3631;42.152;24.756;2023-12-20T00:27:22;55.80;;;27.50;;
7179;SDS011;3631;42.152;24.756;2023-12-20T00:29:49;54.47;;;27.20;;
7179;SDS011;3631;42.152;24.756;2023-12-20T00:32:16;52.37;;;27.23;;
7179;SDS011;3631;42.152;24.756;2023-12-20T00:34:43;52.17;;;25.93;;
7179;SDS011;3631;42.152;24.756;2023-12-20T00:37:10;48.50;;;25.17;;
7179;SDS011;3631;42.152;24.756;2023-12-20T00:39:37;47.83;;;24.10;;
7179;SDS011;3631;42.152;24.756;2023-12-20T00:42:05;45.17;;;23.47;;
7179;SDS011;3631;42.152;24.756;2023-12-20T00:44:32;45.07;;;21.57;;
7179;SDS011;3631;42.152;24.756;2023-12-20T00:46:59;46.20;;;22.20;;
7179;SDS011;3631;42.152;24.756;2023-12-20T00:49:26;37.67;;;21.33;;
7179;SDS011;3631;42.152;24.756;2023-12-20T00:51:53;36.00;;;20.67;;
7179;SDS011;3631;42.152;24.756;2023-12-20T00:54:20;37.07;;;20.17;;
7179;SDS011;3631;42.152;24.756;2023-12-20T00:56:47;31.83;;;20.03;;
7179;SDS011;3631;42.152;24.756;2023-12-20T00:59:16;34.87;;;20.37;;
7179;SDS011;3631;42.152;24.756;2023-12-20T01:01:43;35.80;;;20.13;;
7179;SDS011;3631;42.152;24.756;2023-12-20T01:04:10;41.00;;;19.53;;
7179;SDS011;3631;42.152;24.756;2023-12-20T01:06:37;39.80;;;19.97;;
7179;SDS011;3631;42.152;24.756;2023-12-20T01:09:04;34.57;;;19.00;;
7179;SDS011;3631;42.152;24.756;2023-12-20T01:11:31;33.13;;;19.23;;
7179;SDS011;3631;42.152;24.756;2023-12-20T01:13:57;35.77;;;19.67;;
7179;SDS011;3631;42.152;24.756;2023-12-20T01:16:26;34.50;;;19.43;;
7179;SDS011;3631;42.152;24.756;2023-12-20T01:18:52;35.73;;;19.83;;
7179;SDS011;3631;42.152;24.756;2023-12-20T01:21:19;31.57;;;19.03;;
7179;SDS011;3631;42.152;24.756;2023-12-20T01:23:46;33.40;;;18.57;;
7179;SDS011;3631;42.152;24.756;2023-12-20T01:26:14;29.03;;;16.73;;
7179;SDS011;3631;42.152;24.756;2023-12-20T01:28:41;26.33;;;16.30;;
7179;SDS011;3631;42.152;24.756;2023-12-20T01:31:08;27.63;;;15.27;;
7179;SDS011;3631;42.152;24.756;2023-12-20T01:33:37;29.97;;;16.87;;
7179;SDS011;3631;42.152;24.756;2023-12-20T01:36:04;29.40;;;16.00;;
7179;SDS011;3631;42.152;24.756;2023-12-20T01:38:31;29.47;;;16.20;;
7179;SDS011;3631;42.152;24.756;2023-12-20T01:40:58;29.80;;;16.17;;
7179;SDS011;3631;42.152;24.756;2023-12-20T01:43:25;30.47;;;17.13;;
7179;SDS011;3631;42.152;24.756;2023-12-20T01:45:52;30.40;;;16.67;;
7179;SDS011;3631;42.152;24.756;2023-12-20T01:48:19;34.00;;;17.50;;
7179;SDS011;3631;42.152;24.756;2023-12-20T01:50:48;34.13;;;17.23;;
7179;SDS011;3631;42.152;24.756;2023-12-20T01:53:15;29.80;;;15.80;;
7179;SDS011;3631;42.152;24.756;2023-12-20T01:55:43;27.13;;;16.40;;
7179;SDS011;3631;42.152;24.756;2023-12-20T01:58:11;29.73;;;15.10;;
7179;SDS011;3631;42.152;24.756;2023-12-20T02:00:39;24.60;;;14.37;;
7179;SDS011;3631;42.152;24.756;2023-12-20T02:03:06;24.40;;;12.93;;
7179;SDS011;3631;42.152;24.756;2023-12-20T02:05:34;26.90;;;12.97;;
7179;SDS011;3631;42.152;24.756;2023-12-20T02:08:03;26.40;;;13.73;;
7179;SDS011;3631;42.152;24.756;2023-12-20T02:10:31;21.13;;;12.47;;
7179;SDS011;3631;42.152;24.756;2023-12-20T02:12:58;19.47;;;12.47;;
7179;SDS011;3631;42.152;24.756;2023-12-20T02:15:25;24.70;;;12.63;;
7179;SDS011;3631;42.152;24.756;2023-12-20T02:17:51;19.70;;;11.77;;
7179;SDS011;3631;42.152;24.756;2023-12-20T02:20:19;21.40;;;11.87;;
7179;SDS011;3631;42.152;24.756;2023-12-20T02:22:48;21.27;;;12.73;;
7179;SDS011;3631;42.152;24.756;2023-12-20T02:25:15;18.27;;;12.37;;
7179;SDS011;3631;42.152;24.756;2023-12-20T02:27:42;27.03;;;13.20;;
7179;SDS011;3631;42.152;24.756;2023-12-20T02:30:09;20.30;;;12.77;;
7179;SDS011;3631;42.152;24.756;2023-12-20T02:32:36;20.17;;;11.87;;
7179;SDS011;3631;42.152;24.756;2023-12-20T02:35:04;19.20;;;12.50;;
7179;SDS011;3631;42.152;24.756;2023-12-20T02:37:32;20.33;;;12.07;;
7179;SDS011;3631;42.152;24.756;2023-12-20T02:40:00;23.57;;;12.77;;
7179;SDS011;3631;42.152;24.756;2023-12-20T02:42:28;23.73;;;12.40;;
7179;SDS011;3631;42.152;24.756;2023-12-20T02:44:55;20.27;;;12.20;;
7179;SDS011;3631;42.152;24.756;2023-12-20T02:47:21;17.90;;;11.87;;
7179;SDS011;3631;42.152;24.756;2023-12-20T02:49:48;20.43;;;12.07;;
7179;SDS011;3631;42.152;24.756;2023-12-20T02:52:15;23.57;;;12.27;;
7179;SDS011;3631;42.152;24.756;2023-12-20T02:54:42;22.70;;;12.57;;
7179;SDS011;3631;42.152;24.756;2023-12-20T02:57:11;21.30;;;12.87;;
7179;SDS011;3631;42.152;24.756;2023-12-20T02:59:38;18.40;;;12.37;;
7179;SDS011;3631;42.152;24.756;2023-12-20T03:02:05;20.20;;;12.03;;
7179;SDS011;3631;42.152;24.756;2023-12-20T03:04:32;18.43;;;11.03;;
7179;SDS011;3631;42.152;24.756;2023-12-20T03:06:59;20.20;;;12.13;;
7179;SDS011;3631;42.152;24.756;2023-12-20T03:09:26;17.50;;;11.30;;
7179;SDS011;3631;42.152;24.756;2023-12-20T03:11:53;19.00;;;11.37;;
7179;SDS011;3631;42.152;24.756;2023-12-20T03:14:21;19.53;;;11.70;;
7179;SDS011;3631;42.152;24.756;2023-12-20T03:16:49;17.83;;;10.87;;
7179;SDS011;3631;42.152;24.756;2023-12-20T03:19:16;16.93;;;10.97;;
7179;SDS011;3631;42.152;24.756;2023-12-20T03:21:44;17.80;;;10.93;;
7179;SDS011;3631;42.152;24.756;2023-12-20T03:24:10;19.53;;;11.27;;
7179;SDS011;3631;42.152;24.756;2023-12-20T03:26:37;19.37;;;11.70;;
7179;SDS011;3631;42.152;24.756;2023-12-20T03:29:04;15.77;;;10.60;;
7179;SDS011;3631;42.152;24.756;2023-12-20T03:31:32;16.23;;;10.33;;
7179;SDS011;3631;42.152;24.756;2023-12-20T03:33:59;13.87;;;9.27;;
7179;SDS011;3631;42.152;24.756;2023-12-20T03:36:26;15.33;;;9.87;;
7179;SDS011;3631;42.152;24.756;2023-12-20T03:38:53;15.83;;;9.73;;
7179;SDS011;3631;42.152;24.756;2023-12-20T03:41:20;15.10;;;9.70;;
7179;SDS011;3631;42.152;24.756;2023-12-20T03:43:47;16.17;;;10.13;;
7179;SDS011;3631;42.152;24.756;2023-12-20T03:46:14;19.03;;;10.40;;
7179;SDS011;3631;42.152;24.756;2023-12-20T03:48:42;17.57;;;10.40;;
7179;SDS011;3631;42.152;24.756;2023-12-20T03:51:09;19.23;;;10.50;;
7179;SDS011;3631;42.152;24.756;2023-12-20T03:53:36;22.63;;;11.30;;
7179;SDS011;3631;42.152;24.756;2023-12-20T03:56:03;18.83;;;10.53;;
7179;SDS011;3631;42.152;24.756;2023-12-20T03:58:30;15.90;;;10.67;;
7179;SDS011;3631;42.152;24.756;2023-12-20T04:00:57;18.13;;;10.90;;
7179;SDS011;3631;42.152;24.756;2023-12-20T04:03:23;23.37;;;11.67;;
7179;SDS011;3631;42.152;24.756;2023-12-20T04:05:52;17.80;;;11.17;;
7179;SDS011;3631;42.152;24.756;2023-12-20T04:08:19;18.20;;;11.07;;
7179;SDS011;3631;42.152;24.756;2023-12-20T04:10:46;18.77;;;11.37;;
7179;SDS011;3631;42.152;24.756;2023-12-20T04:13:13;20.07;;;12.87;;
7179;SDS011;3631;42.152;24.756;2023-12-20T04:15:40;22.57;;;12.40;;
7179;SDS011;3631;42.152;24.756;2023-12-20T04:18:08;19.53;;;11.83;;
7179;SDS011;3631;42.152;24.756;2023-12-20T04:20:35;20.83;;;12.13;;
7179;SDS011;3631;42.152;24.756;2023-12-20T04:23:03;23.20;;;13.37;;
7179;SDS011;3631;42.152;24.756;2023-12-20T04:25:30;22.03;;;12.80;;
7179;SDS011;3631;42.152;24.756;2023-12-20T04:27:57;24.87;;;13.27;;
7179;SDS011;3631;42.152;24.756;2023-12-20T04:30:24;23.87;;;12.63;;
7179;SDS011;3631;42.152;24.756;2023-12-20T04:32:51;21.97;;;12.97;;
7179;SDS011;3631;42.152;24.756;2023-12-20T04:35:18;23.13;;;12.83;;
7179;SDS011;3631;42.152;24.756;2023-12-20T04:37:44;18.63;;;12.03;;
7179;SDS011;3631;42.152;24.756;2023-12-20T04:40:13;19.67;;;13.03;;
7179;SDS011;3631;42.152;24.756;2023-12-20T04:42:40;23.43;;;13.37;;
7179;SDS011;3631;42.152;24.756;2023-12-20T04:45:07;25.17;;;14.40;;
7179;SDS011;3631;42.152;24.756;2023-12-20T04:47:35;29.20;;;14.70;;
7179;SDS011;3631;42.152;24.756;2023-12-20T04:50:02;27.73;;;15.23;;
7179;SDS011;3631;42.152;24.756;2023-12-20T04:52:29;29.10;;;16.33;;
7179;SDS011;3631;42.152;24.756;2023-12-20T04:54:56;28.87;;;16.43;;
7179;SDS011;3631;42.152;24.756;2023-12-20T04:57:25;28.23;;;16.83;;
7179;SDS011;3631;42.152;24.756;2023-12-20T04:59:52;27.67;;;17.20;;
7179;SDS011;3631;42.152;24.756;2023-12-20T05:02:22;30.17;;;18.13;;
7179;SDS011;3631;42.152;24.756;2023-12-20T05:04:49;32.30;;;17.37;;
7179;SDS011;3631;42.152;24.756;2023-12-20T05:07:16;32.27;;;17.47;;
7179;SDS011;3631;42.152;24.756;2023-12-20T05:09:43;31.23;;;17.90;;
7179;SDS011;3631;42.152;24.756;2023-12-20T05:12:10;32.20;;;17.57;;
7179;SDS011;3631;42.152;24.756;2023-12-20T05:14:38;30.53;;;18.13;;
7179;SDS011;3631;42.152;24.756;2023-12-20T05:17:05;31.93;;;18.33;;
7179;SDS011;3631;42.152;24.756;2023-12-20T05:19:32;31.87;;;18.10;;
7179;SDS011;3631;42.152;24.756;2023-12-20T05:22:00;33.90;;;18.07;;
7179;SDS011;3631;42.152;24.756;2023-12-20T05:24:27;36.40;;;19.07;;
7179;SDS011;3631;42.152;24.756;2023-12-20T05:26:54;37.57;;;18.30;;
7179;SDS011;3631;42.152;24.756;2023-12-20T05:29:21;31.13;;;17.20;;
7179;SDS011;3631;42.152;24.756;2023-12-20T05:31:49;32.90;;;17.73;;
7179;SDS011;3631;42.152;24.756;2023-12-20T05:34:16;32.33;;;17.60;;
7179;SDS011;3631;42.152;24.756;2023-12-20T05:36:43;30.93;;;17.87;;
7179;SDS011;3631;42.152;24.756;2023-12-20T05:39:10;33.67;;;18.10;;
7179;SDS011;3631;42.152;24.756;2023-12-20T05:41:37;30.27;;;17.80;;
7179;SDS011;3631;42.152;24.756;2023-12-20T05:44:04;33.37;;;18.50;;
7179;SDS011;3631;42.152;24.756;2023-12-20T05:46:30;31.63;;;18.70;;
7179;SDS011;3631;42.152;24.756;2023-12-20T05:48:59;34.07;;;18.50;;
7179;SDS011;3631;42.152;24.756;2023-12-20T05:51:27;35.83;;;19.93;;
7179;SDS011;3631;42.152;24.756;2023-12-20T05:53:54;33.00;;;19.40;;
7179;SDS011;3631;42.152;24.756;2023-12-20T05:56:21;30.53;;;17.73;;
7179;SDS011;3631;42.152;24.756;2023-12-20T05:58:48;33.63;;;18.83;;
7179;SDS011;3631;42.152;24.756;2023-12-20T06:01:15;34.30;;;21.13;;
7179;SDS011;3631;42.152;24.756;2023-12-20T06:03:43;41.93;;;22.13;;
7179;SDS011;3631;42.152;24.756;2023-12-20T06:06:12;36.10;;;21.57;;
7179;SDS011;3631;42.152;24.756;2023-12-20T06:08:40;36.60;;;20.93;;
7179;SDS011;3631;42.152;24.756;2023-12-20T06:11:08;38.80;;;20.07;;
7179;SDS011;3631;42.152;24.756;2023-12-20T06:13:35;35.97;;;19.70;;
7179;SDS011;3631;42.152;24.756;2023-12-20T06:16:05;30.00;;;18.47;;
7179;SDS011;3631;42.152;24.756;2023-12-20T06:18:32;26.53;;;17.13;;
7179;SDS011;3631;42.152;24.756;2023-12-20T06:20:59;27.03;;;16.67;;
7179;SDS011;3631;42.152;24.756;2023-12-20T06:23:28;32.53;;;17.30;;
7179;SDS011;3631;42.152;24.756;2023-12-20T06:25:54;32.63;;;17.10;;
7179;SDS011;3631;42.152;24.756;2023-12-20T06:28:21;27.70;;;15.50;;
7179;SDS011;3631;42.152;24.756;2023-12-20T06:30:48;28.03;;;16.37;;
7179;SDS011;3631;42.152;24.756;2023-12-20T06:33:17;25.53;;;16.13;;
7179;SDS011;3631;42.152;24.756;2023-12-20T06:35:46;25.27;;;14.40;;
7179;SDS011;3631;42.152;24.756;2023-12-20T06:38:13;26.83;;;15.70;;
7179;SDS011;3631;42.152;24.756;2023-12-20T06:40:41;24.37;;;13.77;;
7179;SDS011;3631;42.152;24.756;2023-12-20T06:43:09;26.10;;;15.50;;
7179;SDS011;3631;42.152;24.756;2023-12-20T06:45:36;24.87;;;14.73;;
7179;SDS011;3631;42.152;24.756;2023-12-20T06:48:03;24.23;;;15.13;;
7179;SDS011;3631;42.152;24.756;2023-12-20T06:50:30;25.87;;;14.70;;
7179;SDS011;3631;42.152;24.756;2023-12-20T06:52:57;25.93;;;14.13;;
7179;SDS011;3631;42.152;24.756;2023-12-20T06:55:24;25.10;;;13.90;;
7179;SDS011;3631;42.152;24.756;2023-12-20T06:57:52;23.07;;;13.00;;
7179;SDS011;3631;42.152;24.756;2023-12-20T07:00:19;22.07;;;13.77;;
7179;SDS011;3631;42.152;24.756;2023-12-20T07:02:46;22.47;;;13.57;;
7179;SDS011;3631;42.152;24.756;2023-12-20T07:05:15;21.27;;;13.17;;
7179;SDS011;3631;42.152;24.756;2023-12-20T07:07:46;20.40;;;12.60;;
7179;SDS011;3631;42.152;24.756;2023-12-20T07:10:13;23.10;;;12.97;;
7179;SDS011;3631;42.152;24.756;2023-12-20T07:12:40;19.20;;;13.47;;
7179;SDS011;3631;42.152;24.756;2023-12-20T07:15:08;20.63;;;12.67;;
7179;SDS011;3631;42.152;24.756;2023-12-20T07:17:36;22.70;;;13.57;;
7179;SDS011;3631;42.152;24.756;2023-12-20T07:20:03;22.00;;;14.20;;
7179;SDS011;3631;42.152;24.756;2023-12-20T07:22:34;23.50;;;14.37;;
7179;SDS011;3631;42.152;24.756;2023-12-20T07:25:01;22.60;;;13.73;;
7179;SDS011;3631;42.152;24.756;2023-12-20T07:27:28;23.00;;;14.27;;
7179;SDS011;3631;42.152;24.756;2023-12-20T07:29:55;23.10;;;14.20;;
7179;SDS011;3631;42.152;24.756;2023-12-20T07:32:24;26.57;;;14.53;;
7179;SDS011;3631;42.152;24.756;2023-12-20T07:34:51;23.97;;;14.93;;
7179;SDS011;3631;42.152;24.756;2023-12-20T07:37:18;19.37;;;13.43;;
7179;SDS011;3631;42.152;24.756;2023-12-20T07:39:46;30.67;;;15.17;;
7179;SDS011;3631;42.152;24.756;2023-12-20T07:42:13;19.87;;;13.53;;
7179;SDS011;3631;42.152;24.756;2023-12-20T07:44:40;22.87;;;14.23;;
7179;SDS011;3631;42.152;24.756;2023-12-20T07:47:07;22.27;;;13.83;;
7179;SDS011;3631;42.152;24.756;2023-12-20T07:49:35;17.93;;;12.50;;
7179;SDS011;3631;42.152;24.756;2023-12-20T07:52:02;24.30;;;12.73;;
7179;SDS011;3631;42.152;24.756;2023-12-20T07:54:30;26.43;;;12.13;;
7179;SDS011;3631;42.152;24.756;2023-12-20T07:56:57;21.87;;;11.93;;
7179;SDS011;3631;42.152;24.756;2023-12-20T07:59:24;24.57;;;12.57;;
7179;SDS011;3631;42.152;24.756;2023-12-20T08:01:51;22.07;;;12.40;;
7179;SDS011;3631;42.152;24.756;2023-12-20T08:04:17;23.30;;;12.70;;
7179;SDS011;3631;42.152;24.756;2023-12-20T08:06:46;19.67;;;12.30;;
7179;SDS011;3631;42.152;24.756;2023-12-20T08:09:13;22.93;;;12.87;;
7179;SDS011;3631;42.152;24.756;2023-12-20T08:11:40;24.37;;;11.93;;
7179;SDS011;3631;42.152;24.756;2023-12-20T08:14:11;21.80;;;12.80;;
7179;SDS011;3631;42.152;24.756;2023-12-20T08:16:38;21.53;;;13.00;;
7179;SDS011;3631;42.152;24.756;2023-12-20T08:19:05;21.80;;;13.33;;
7179;SDS011;3631;42.152;24.756;2023-12-20T08:21:32;21.60;;;13.70;;
7179;SDS011;3631;42.152;24.756;2023-12-20T08:24:01;26.83;;;14.60;;
7179;SDS011;3631;42.152;24.756;2023-12-20T08:26:28;19.47;;;14.27;;
7179;SDS011;3631;42.152;24.756;2023-12-20T08:28:55;23.70;;;14.03;;
7179;SDS011;3631;42.152;24.756;2023-12-20T08:31:22;21.73;;;13.70;;
7179;SDS011;3631;42.152;24.756;2023-12-20T08:33:49;23.47;;;14.43;;
7179;SDS011;3631;42.152;24.756;2023-12-20T08:36:16;23.20;;;14.43;;
7179;SDS011;3631;42.152;24.756;2023-12-20T08:38:43;24.40;;;14.50;;
7179;SDS011;3631;42.152;24.756;2023-12-20T08:41:12;21.87;;;13.93;;
7179;SDS011;3631;42.152;24.756;2023-12-20T08:43:39;27.23;;;15.27;;
7179;SDS011;3631;42.152;24.756;2023-12-20T08:46:06;23.43;;;15.50;;
7179;SDS011;3631;42.152;24.756;2023-12-20T08:48:35;30.30;;;16.23;;
7179;SDS011;3631;42.152;24.756;2023-12-20T08:51:02;23.30;;;15.80;;
7179;SDS011;3631;42.152;24.756;2023-12-20T08:53:32;28.27;;;16.50;;
7179;SDS011;3631;42.152;24.756;2023-12-20T08:55:59;26.87;;;16.03;;
7179;SDS011;3631;42.152;24.756;2023-12-20T08:58:28;24.70;;;16.37;;
7179;SDS011;3631;42.152;24.756;2023-12-20T09:00:55;27.13;;;16.03;;
7179;SDS011;3631;42.152;24.756;2023-12-20T09:03:22;29.83;;;16.70;;
7179;SDS011;3631;42.152;24.756;2023-12-20T09:05:49;26.77;;;15.90;;
7179;SDS011;3631;42.152;24.756;2023-12-20T09:08:16;26.60;;;16.23;;
7179;SDS011;3631;42.152;24.756;2023-12-20T09:10:43;25.20;;;16.33;;
7179;SDS011;3631;42.152;24.756;2023-12-20T09:13:10;32.33;;;16.07;;
7179;SDS011;3631;42.152;24.756;2023-12-20T09:15:39;23.13;;;15.60;;
7179;SDS011;3631;42.152;24.756;2023-12-20T09:18:06;30.13;;;15.70;;
7179;SDS011;3631;42.152;24.756;2023-12-20T09:20:33;29.77;;;15.80;;
7179;SDS011;3631;42.152;24.756;2023-12-20T09:23:00;22.20;;;15.13;;
7179;SDS011;3631;42.152;24.756;2023-12-20T09:25:27;25.83;;;15.97;;
7179;SDS011;3631;42.152;24.756;2023-12-20T09:27:55;24.50;;;15.57;;
7179;SDS011;3631;42.152;24.756;2023-12-20T09:30:22;25.87;;;15.83;;
7179;SDS011;3631;42.152;24.756;2023-12-20T09:32:50;25.60;;;16.07;;
7179;SDS011;3631;42.152;24.756;2023-12-20T09:35:17;22.97;;;15.77;;
7179;SDS011;3631;42.152;24.756;2023-12-20T09:37:44;22.63;;;14.77;;
7179;SDS011;3631;42.152;24.756;2023-12-20T09:40:12;22.20;;;13.97;;
7179;SDS011;3631;42.152;24.756;2023-12-20T09:42:42;20.40;;;13.87;;
7179;SDS011;3631;42.152;24.756;2023-12-20T09:45:15;21.63;;;13.83;;
7179;SDS011;3631;42.152;24.756;2023-12-20T09:47:46;20.00;;;13.27;;
7179;SDS011;3631;42.152;24.756;2023-12-20T09:50:16;23.67;;;14.17;;
7179;SDS011;3631;42.152;24.756;2023-12-20T09:52:46;25.80;;;14.20;;
7179;SDS011;3631;42.152;24.756;2023-12-20T09:55:17;25.73;;;14.60;;
7179;SDS011;3631;42.152;24.756;2023-12-20T09:57:45;25.80;;;15.63;;
7179;SDS011;3631;42.152;24.756;2023-12-20T10:00:12;26.33;;;15.83;;
7179;SDS011;3631;42.152;24.756;2023-12-20T10:02:42;26.87;;;15.77;;
7179;SDS011;3631;42.152;24.756;2023-12-20T10:05:19;28.27;;;16.30;;
7179;SDS011;3631;42.152;24.756;2023-12-20T10:08:01;24.23;;;15.27;;
7179;SDS011;3631;42.152;24.756;2023-12-20T10:10:33;25.70;;;16.27;;
7179;SDS011;3631;42.152;24.756;2023-12-20T10:13:10;24.20;;;14.20;;
7179;SDS011;3631;42.152;24.756;2023-12-20T10:15:42;22.13;;;15.47;;
7179;SDS011;3631;42.152;24.756;2023-12-20T10:18:13;24.90;;;15.30;;
7179;SDS011;3631;42.152;24.756;2023-12-20T10:20:47;18.53;;;13.93;;
7179;SDS011;3631;42.152;24.756;2023-12-20T10:23:16;20.83;;;13.33;;
7179;SDS011;3631;42.152;24.756;2023-12-20T10:25:55;19.77;;;12.80;;
7179;SDS011;3631;42.152;24.756;2023-12-20T10:28:26;20.80;;;13.03;;
7179;SDS011;3631;42.152;24.756;2023-12-20T10:30:57;20.57;;;12.63;;
7179;SDS011;3631;42.152;24.756;2023-12-20T10:33:32;20.90;;;12.77;;
7179;SDS011;3631;42.152;24.756;2023-12-20T10:36:02;17.57;;;12.73;;
7179;SDS011;3631;42.152;24.756;2023-12-20T10:38:30;19.33;;;12.43;;
7179;SDS011;3631;42.152;24.756;2023-12-20T10:40:59;20.33;;;13.63;;
7179;SDS011;3631;42.152;24.756;2023-12-20T10:43:34;20.93;;;12.57;;
7179;SDS011;3631;42.152;24.756;2023-12-20T10:46:03;25.60;;;13.70;;
7179;SDS011;3631;42.152;24.756;2023-12-20T10:48:35;20.07;;;12.97;;
7179;SDS011;3631;42.152;24.756;2023-12-20T10:51:05;19.80;;;12.23;;
7179;SDS011;3631;42.152;24.756;2023-12-20T10:53:33;16.93;;;12.20;;
7179;SDS011;3631;42.152;24.756;2023-12-20T10:56:08;19.47;;;13.23;;
7179;SDS011;3631;42.152;24.756;2023-12-20T10:58:44;19.93;;;13.03;;
7179;SDS011;3631;42.152;24.756;2023-12-20T11:01:12;17.80;;;11.97;;
7179;SDS011;3631;42.152;24.756;2023-12-20T11:03:43;21.27;;;13.67;;
7179;SDS011;3631;42.152;24.756;2023-12-20T11:06:26;21.90;;;13.10;;
7179;SDS011;3631;42.152;24.756;2023-12-20T11:09:03;17.73;;;12.60;;
7179;SDS011;3631;42.152;24.756;2023-12-20T11:11:42;23.87;;;12.93;;
7179;SDS011;3631;42.152;24.756;2023-12-20T11:14:23;25.10;;;14.77;;
7179;SDS011;3631;42.152;24.756;2023-12-20T11:17:05;18.40;;;12.60;;
7179;SDS011;3631;42.152;24.756;2023-12-20T11:19:32;20.83;;;14.17;;
7179;SDS011;3631;42.152;24.756;2023-12-20T11:22:04;19.53;;;12.97;;
7179;SDS011;3631;42.152;24.756;2023-12-20T11:24:32;20.57;;;13.60;;
7179;SDS011;3631;42.152;24.756;2023-12-20T11:27:03;25.20;;;14.67;;
7179;SDS011;3631;42.152;24.756;2023-12-20T11:29:33;27.13;;;15.03;;
7179;SDS011;3631;42.152;24.756;2023-12-20T11:32:01;24.27;;;15.13;;
7179;SDS011;3631;42.152;24.756;2023-12-20T11:34:31;19.93;;;13.87;;
7179;SDS011;3631;42.152;24.756;2023-12-20T11:36:59;26.10;;;15.40;;
7179;SDS011;3631;42.152;24.756;2023-12-20T11:39:29;21.53;;;14.77;;
7179;SDS011;3631;42.152;24.756;2023-12-20T11:41:57;53.23;;;16.63;;
7179;SDS011;3631;42.152;24.756;2023-12-20T11:44:31;29.00;;;14.67;;
7179;SDS011;3631;42.152;24.756;2023-12-20T11:46:58;25.97;;;14.73;;
7179;SDS011;3631;42.152;24.756;2023-12-20T11:49:25;28.73;;;15.83;;
7179;SDS011;3631;42.152;24.756;2023-12-20T11:51:54;24.93;;;15.90;;
7179;SDS011;3631;42.152;24.756;2023-12-20T11:54:21;30.93;;;16.50;;
7179;SDS011;3631;42.152;24.756;2023-12-20T11:56:50;31.40;;;17.00;;
7179;SDS011;3631;42.152;24.756;2023-12-20T11:59:17;40.00;;;19.30;;
7179;SDS011;3631;42.152;24.756;2023-12-20T12:01:47;37.93;;;22.00;;
7179;SDS011;3631;42.152;24.756;2023-12-20T12:04:15;137.97;;;70.57;;
7179;SDS011;3631;42.152;24.756;2023-12-20T12:06:43;40.30;;;22.70;;
7179;SDS011;3631;42.152;24.756;2023-12-20T12:09:10;38.37;;;20.30;;
7179;SDS011;3631;42.152;24.756;2023-12-20T12:11:37;35.53;;;20.60;;
7179;SDS011;3631;42.152;24.756;2023-12-20T12:14:06;37.83;;;20.47;;
7179;SDS011;3631;42.152;24.756;2023-12-20T12:16:33;36.70;;;20.90;;
7179;SDS011;3631;42.152;24.756;2023-12-20T12:19:00;35.47;;;22.10;;
7179;SDS011;3631;42.152;24.756;2023-12-20T12:21:27;41.10;;;23.33;;
7179;SDS011;3631;42.152;24.756;2023-12-20T12:23:54;46.27;;;25.47;;
7179;SDS011;3631;42.152;24.756;2023-12-20T12:26:32;47.27;;;25.83;;
7179;SDS011;3631;42.152;24.756;2023-12-20T12:28:59;48.20;;;26.03;;
7179;SDS011;3631;42.152;24.756;2023-12-20T12:31:28;42.20;;;26.47;;
7179;SDS011;3631;42.152;24.756;2023-12-20T12:33:55;53.10;;;30.27;;
7179;SDS011;3631;42.152;24.756;2023-12-20T12:36:22;49.37;;;28.77;;
7179;SDS011;3631;42.152;24.756;2023-12-20T12:38:48;54.77;;;29.43;;
7179;SDS011;3631;42.152;24.756;2023-12-20T12:41:15;226.63;;;118.93;;
7179;SDS011;3631;42.152;24.756;2023-12-20T12:43:42;139.83;;;70.87;;
7179;SDS011;3631;42.152;24.756;2023-12-20T12:46:09;64.53;;;35.03;;
7179;SDS011;3631;42.152;24.756;2023-12-20T12:48:40;63.43;;;34.40;;
7179;SDS011;3631;42.152;24.756;2023-12-20T12:51:09;59.60;;;31.57;;
7179;SDS011;3631;42.152;24.756;2023-12-20T12:53:38;54.60;;;32.27;;
7179;SDS011;3631;42.152;24.756;2023-12-20T12:56:05;65.00;;;31.23;;
7179;SDS011;3631;42.152;24.756;2023-12-20T12:58:32;60.77;;;31.40;;
7179;SDS011;3631;42.152;24.756;2023-12-20T13:00:59;49.23;;;29.57;;
7179;SDS011;3631;42.152;24.756;2023-12-20T13:03:26;51.90;;;31.37;;
7179;SDS011;3631;42.152;24.756;2023-12-20T13:05:55;49.40;;;28.83;;
7179;SDS011;3631;42.152;24.756;2023-12-20T13:08:22;50.50;;;29.10;;
7179;SDS011;3631;42.152;24.756;2023-12-20T13:10:49;53.70;;;30.40;;
7179;SDS011;3631;42.152;24.756;2023-12-20T13:13:16;54.70;;;29.07;;
7179;SDS011;3631;42.152;24.756;2023-12-20T13:15:43;46.33;;;27.60;;
7179;SDS011;3631;42.152;24.756;2023-12-20T13:18:16;47.43;;;25.97;;
7179;SDS011;3631;42.152;24.756;2023-12-20T13:20:43;48.03;;;24.60;;
7179;SDS011;3631;42.152;24.756;2023-12-20T13:23:11;46.33;;;24.90;;
7179;SDS011;3631;42.152;24.756;2023-12-20T13:25:39;53.67;;;25.97;;
7179;SDS011;3631;42.152;24.756;2023-12-20T13:28:06;49.60;;;26.10;;
7179;SDS011;3631;42.152;24.756;2023-12-20T13:30:33;48.93;;;28.03;;
7179;SDS011;3631;42.152;24.756;2023-12-20T13:33:00;46.17;;;26.93;;
7179;SDS011;3631;42.152;24.756;2023-12-20T13:35:27;47.33;;;28.30;;
7179;SDS011;3631;42.152;24.756;2023-12-20T13:37:54;58.10;;;28.70;;
7179;SDS011;3631;42.152;24.756;2023-12-20T13:40:23;52.63;;;30.50;;
7179;SDS011;3631;42.152;24.756;2023-12-20T13:42:50;64.90;;;32.57;;
7179;SDS011;3631;42.152;24.756;2023-12-20T13:45:17;63.50;;;30.97;;
7179;SDS011;3631;42.152;24.756;2023-12-20T13:47:44;58.43;;;31.53;;
7179;SDS011;3631;42.152;24.756;2023-12-20T13:50:11;58.00;;;31.37;;
7179;SDS011;3631;42.152;24.756;2023-12-20T13:52:38;70.20;;;36.70;;
7179;SDS011;3631;42.152;24.756;2023-12-20T13:55:05;66.10;;;34.90;;
7179;SDS011;3631;42.152;24.756;2023-12-20T13:57:34;64.23;;;35.23;;
7179;SDS011;3631;42.152;24.756;2023-12-20T14:00:03;63.43;;;34.77;;
7179;SDS011;3631;42.152;24.756;2023-12-20T14:02:30;64.40;;;33.57;;
7179;SDS011;3631;42.152;24.756;2023-12-20T14:04:57;56.93;;;32.97;;
7179;SDS011;3631;42.152;24.756;2023-12-20T14:07:24;50.43;;;28.17;;
7179;SDS011;3631;42.152;24.756;2023-12-20T14:09:51;55.40;;;27.67;;
7179;SDS011;3631;42.152;24.756;2023-12-20T14:12:18;52.10;;;26.83;;
7179;SDS011;3631;42.152;24.756;2023-12-20T14:14:46;46.20;;;26.83;;
7179;SDS011;3631;42.152;24.756;2023-12-20T14:17:13;56.00;;;28.67;;
7179;SDS011;3631;42.152;24.756;2023-12-20T14:19:40;54.23;;;29.13;;
7179;SDS011;3631;42.152;24.756;2023-12-20T14:22:07;51.00;;;26.83;;
7179;SDS011;3631;42.152;24.756;2023-12-20T14:24:34;48.67;;;24.67;;
7179;SDS011;3631;42.152;24.756;2023-12-20T14:27:01;43.73;;;23.50;;
7179;SDS011;3631;42.152;24.756;2023-12-20T14:29:28;47.33;;;22.63;;
7179;SDS011;3631;42.152;24.756;2023-12-20T14:31:56;39.90;;;23.70;;
7179;SDS011;3631;42.152;24.756;2023-12-20T14:34:23;43.03;;;24.07;;
7179;SDS011;3631;42.152;24.756;2023-12-20T14:36:50;46.53;;;23.63;;